Time;durP1;ratioP1;P1;durP2;ratioP2;P2;SDS_P1;SDS_P2;PMS_P1;PMS_P2;Temp;Humidity;BMP_temperature;BMP_pressure;BME280_temperature;BME280_humidity;BME280_pressure;Samples;Min_cycle;Max_cycle;Signal;HPM_P1;HPM_P2
2023/08/13 00:00:44;;;;;;;4.32;1.30;;;22.10;58.70;23.70;101507.00;;;;5044706;28;20195;-78
2023/08/13 00:03:11;;;;;;;2.95;1.10;;;22.10;58.60;23.70;101507.00;;;;5048395;28;20603;-78
2023/08/13 00:05:38;;;;;;;3.03;1.33;;;22.00;58.60;23.70;101512.00;;;;5047737;28;20191;-78
2023/08/13 00:08:07;;;;;;;2.95;1.17;;;22.00;58.60;23.60;101522.00;;;;5042543;28;20202;-78
2023/08/13 00:10:34;;;;;;;3.67;1.05;;;22.00;58.70;23.60;101521.00;;;;5047756;28;20677;-79
2023/08/13 00:13:01;;;;;;;3.75;1.00;;;22.00;58.70;23.60;101510.00;;;;5049316;28;20241;-78
2023/08/13 00:15:28;;;;;;;3.80;1.10;;;22.00;58.70;23.60;101512.00;;;;5047180;28;20725;-79
2023/08/13 00:17:55;;;;;;;6.55;1.67;;;22.00;58.70;23.60;101513.00;;;;5035561;28;20203;-78
2023/08/13 00:20:23;;;;;;;3.72;1.10;;;22.00;58.70;23.60;101509.00;;;;5049426;28;20207;-78
2023/08/13 00:22:50;;;;;;;2.38;1.00;;;22.00;58.70;23.50;101502.00;;;;5049406;28;20200;-78
2023/08/13 00:25:18;;;;;;;4.63;1.30;;;21.90;58.70;23.50;101500.00;;;;5049540;28;20192;-78
2023/08/13 00:27:45;;;;;;;2.90;1.33;;;21.90;58.70;23.50;101504.00;;;;5047149;28;20204;-78
2023/08/13 00:30:12;;;;;;;3.22;0.90;;;21.90;58.80;23.50;101505.00;;;;5048902;28;20200;-78
2023/08/13 00:32:39;;;;;;;6.63;2.00;;;21.90;58.90;23.50;101509.00;;;;5045354;28;20196;-79
2023/08/13 00:35:07;;;;;;;3.90;1.33;;;21.90;58.90;23.50;101508.00;;;;5048951;28;20672;-78
2023/08/13 00:37:35;;;;;;;2.58;1.05;;;21.90;59.00;23.50;101502.00;;;;5044261;28;20203;-78
2023/08/13 00:40:02;;;;;;;4.40;1.05;;;21.80;58.90;23.50;101506.00;;;;5045951;28;20249;-79
2023/08/13 00:42:31;;;;;;;2.78;1.23;;;21.80;58.90;23.40;101508.00;;;;5049090;28;20205;-78
2023/08/13 00:44:58;;;;;;;3.60;0.90;;;21.80;59.00;23.50;101511.00;;;;5049327;28;20222;-78
2023/08/13 00:47:25;;;;;;;3.22;1.27;;;21.80;59.00;23.40;101514.00;;;;5049401;28;20578;-78
2023/08/13 00:49:52;;;;;;;5.65;1.27;;;21.80;59.10;23.40;101506.00;;;;5046412;28;20677;-78
2023/08/13 00:52:20;;;;;;;2.80;1.40;;;21.80;59.10;23.40;101510.00;;;;5048989;28;20211;-78
2023/08/13 00:54:48;;;;;;;5.72;1.20;;;21.70;59.10;23.40;101514.00;;;;5048211;28;20207;-78
2023/08/13 00:57:15;;;;;;;2.22;0.98;;;21.70;59.10;23.40;101512.00;;;;5049305;28;20242;-78
2023/08/13 00:59:44;;;;;;;3.42;0.75;;;21.70;59.10;23.40;101513.00;;;;5048190;28;20207;-78
2023/08/13 01:02:11;;;;;;;2.45;1.30;;;21.70;59.10;23.40;101507.00;;;;5047157;28;20215;-78
2023/08/13 01:04:38;;;;;;;5.53;1.25;;;21.70;59.10;23.40;101502.00;;;;5046339;28;20660;-78
2023/08/13 01:07:18;;;;;;;3.65;0.90;;;21.70;59.20;23.20;101510.00;;;;5041338;28;20195;-78
2023/08/13 01:10:00;;;;;;;3.78;1.10;;;21.60;59.20;23.20;101498.00;;;;5046610;28;20192;-78
2023/08/13 01:12:38;;;;;;;2.97;0.80;;;21.70;59.30;23.30;101499.00;;;;5038076;28;20203;-78
2023/08/13 01:15:14;;;;;;;5.85;1.30;;;21.70;59.40;23.20;101503.00;;;;5046635;28;20195;-78
2023/08/13 01:17:43;;;;;;;4.45;1.42;;;21.60;59.30;23.30;101495.00;;;;5046479;28;20207;-79
2023/08/13 01:20:12;;;;;;;3.00;0.95;;;21.70;59.20;23.20;101493.00;;;;5046105;28;20231;-78
2023/08/13 01:22:47;;;;;;;3.38;1.33;;;21.60;59.10;23.20;101494.00;;;;5048488;28;20270;-78
2023/08/13 01:25:15;;;;;;;1.95;1.30;;;21.60;59.30;23.20;101497.00;;;;5046572;28;20204;-79
2023/08/13 01:27:53;;;;;;;2.38;1.10;;;21.60;59.20;23.10;101493.00;;;;5048031;28;20282;-78
2023/08/13 01:30:27;;;;;;;4.68;1.27;;;21.60;59.30;23.10;101486.00;;;;5048110;28;20203;-78
2023/08/13 01:33:02;;;;;;;4.53;1.17;;;21.60;59.20;23.10;101490.00;;;;5047949;28;20206;-78
2023/08/13 01:35:31;;;;;;;5.25;1.27;;;21.50;59.10;23.10;101489.00;;;;5041501;28;20199;-78
2023/08/13 01:38:01;;;;;;;3.92;1.40;;;21.50;59.20;23.10;101492.00;;;;5045062;28;20563;-78
2023/08/13 01:40:28;;;;;;;3.53;1.27;;;21.50;59.30;23.10;101494.00;;;;5045347;28;20219;-78
2023/08/13 01:42:56;;;;;;;5.20;1.60;;;21.50;59.30;23.10;101494.00;;;;5038578;28;21040;-78
2023/08/13 01:45:23;;;;;;;7.72;1.50;;;21.50;59.30;23.10;101489.00;;;;5048068;28;20223;-78
2023/08/13 01:47:50;;;;;;;5.90;1.77;;;21.40;59.30;23.00;101484.00;;;;5047928;28;20195;-78
2023/08/13 01:50:17;;;;;;;2.70;1.58;;;21.40;59.30;23.00;101498.00;;;;5046681;28;20551;-78
2023/08/13 01:52:44;;;;;;;3.30;1.00;;;21.40;59.30;23.00;101494.00;;;;5047555;28;20264;-78
2023/08/13 01:55:13;;;;;;;4.97;1.33;;;21.40;59.40;23.00;101494.00;;;;5047930;28;20195;-78
2023/08/13 01:57:40;;;;;;;4.82;1.77;;;21.40;59.40;23.00;101492.00;;;;5047474;28;20223;-77
2023/08/13 02:00:08;;;;;;;3.13;1.27;;;21.30;59.40;22.90;101492.00;;;;5037069;28;20202;-78
2023/08/13 02:02:35;;;;;;;4.40;1.65;;;21.30;59.40;22.90;101493.00;;;;5047560;28;20236;-78
2023/08/13 02:05:03;;;;;;;3.05;1.52;;;21.30;59.40;22.90;101498.00;;;;5047074;28;20215;-78
2023/08/13 02:07:30;;;;;;;5.82;1.75;;;21.30;59.50;22.90;101493.00;;;;5046337;28;20196;-78
2023/08/13 02:09:57;;;;;;;3.33;1.67;;;21.30;59.50;22.90;101487.00;;;;5037202;28;20200;-78
2023/08/13 02:12:25;;;;;;;2.38;1.40;;;21.20;59.50;22.80;101495.00;;;;5030639;28;20922;-78
2023/08/13 02:14:52;;;;;;;6.07;1.33;;;21.20;59.60;22.80;101494.00;;;;5045940;28;20199;-78
2023/08/13 02:17:19;;;;;;;5.78;1.30;;;21.20;59.60;22.80;101494.00;;;;5047620;28;20313;-78
2023/08/13 02:19:46;;;;;;;5.45;1.50;;;21.20;59.60;22.80;101488.00;;;;5045849;28;20651;-78
2023/08/13 02:22:13;;;;;;;6.65;1.67;;;21.20;59.60;22.80;101489.00;;;;5047422;28;20211;-78
2023/08/13 02:24:40;;;;;;;5.22;1.85;;;21.10;59.60;22.80;101490.00;;;;5047846;28;20199;-78
2023/08/13 02:27:07;;;;;;;3.58;1.40;;;21.10;59.70;22.80;101486.00;;;;5045634;28;20200;-78
2023/08/13 02:29:36;;;;;;;5.28;1.38;;;21.10;59.70;22.70;101479.00;;;;5040593;28;20568;-78
2023/08/13 02:32:03;;;;;;;2.80;1.45;;;21.10;59.80;22.70;101480.00;;;;5035395;28;20291;-78
2023/08/13 02:34:33;;;;;;;4.95;1.42;;;21.10;59.80;22.70;101485.00;;;;5032271;28;20202;-78
2023/08/13 02:37:00;;;;;;;8.82;1.85;;;21.10;59.90;22.70;101488.00;;;;5046834;28;20280;-78
2023/08/13 02:39:27;;;;;;;3.08;1.30;;;21.00;59.90;22.70;101492.00;;;;5043843;28;20727;-79
2023/08/13 02:41:54;;;;;;;2.28;1.35;;;21.00;59.90;22.70;101491.00;;;;5046910;28;20194;-78
2023/08/13 02:44:22;;;;;;;4.15;1.08;;;21.00;60.00;22.70;101488.00;;;;5046991;28;20207;-78
2023/08/13 02:46:51;;;;;;;4.93;1.15;;;21.00;60.00;22.60;101480.00;;;;5043644;28;20235;-78
2023/08/13 02:49:18;;;;;;;3.83;1.13;;;21.00;60.10;22.60;101479.00;;;;5044179;28;20663;-78
2023/08/13 02:51:45;;;;;;;4.20;1.52;;;21.00;60.10;22.60;101482.00;;;;5043055;28;20208;-78
2023/08/13 02:54:12;;;;;;;3.65;1.60;;;21.00;60.10;22.60;101485.00;;;;5044599;28;20204;-78
2023/08/13 02:56:39;;;;;;;5.22;1.67;;;20.90;60.20;22.60;101481.00;;;;5047354;28;20227;-78
2023/08/13 02:59:06;;;;;;;4.82;1.40;;;20.90;60.20;22.60;101480.00;;;;5046425;28;20208;-78
2023/08/13 03:01:33;;;;;;;5.68;1.67;;;20.90;60.20;22.60;101479.00;;;;5047249;28;20694;-78
2023/08/13 03:04:03;;;;;;;1.85;1.15;;;20.90;60.20;22.50;101484.00;;;;5046852;28;20593;-77
2023/08/13 03:06:30;;;;;;;4.72;1.55;;;20.90;60.30;22.50;101489.00;;;;5037321;28;20232;-78
2023/08/13 03:08:57;;;;;;;6.90;1.70;;;20.90;60.30;22.50;101480.00;;;;5045249;28;20670;-78
2023/08/13 03:11:24;;;;;;;3.92;1.10;;;20.90;60.40;22.50;101480.00;;;;5046764;28;20200;-78
2023/08/13 03:13:52;;;;;;;3.67;1.33;;;20.80;60.40;22.50;101478.00;;;;5041653;28;20210;-77
2023/08/13 03:16:20;;;;;;;4.65;1.20;;;20.80;60.50;22.50;101489.00;;;;5046270;28;20231;-78
2023/08/13 03:18:48;;;;;;;5.47;1.60;;;20.80;60.50;22.50;101489.00;;;;5046225;28;20604;-78
2023/08/13 03:21:16;;;;;;;4.88;1.60;;;20.80;60.60;22.50;101481.00;;;;5046064;28;20211;-78
2023/08/13 03:23:43;;;;;;;3.35;1.25;;;20.80;60.60;22.50;101484.00;;;;5045163;28;20199;-78
2023/08/13 03:26:10;;;;;;;3.58;1.00;;;20.80;60.60;22.50;101481.00;;;;5046006;28;20983;-78
2023/08/13 03:28:37;;;;;;;3.55;1.30;;;20.80;60.70;22.40;101486.00;;;;5045341;28;20204;-78
2023/08/13 03:31:04;;;;;;;3.83;1.13;;;20.80;60.80;22.40;101488.00;;;;5044736;28;20200;-78
2023/08/13 03:33:31;;;;;;;3.85;1.40;;;20.70;60.80;22.40;101481.00;;;;5045806;28;20553;-78
2023/08/13 03:35:58;;;;;;;3.35;1.45;;;20.70;60.80;22.40;101485.00;;;;5045910;28;20655;-78
2023/08/13 03:38:27;;;;;;;3.85;1.23;;;20.70;60.80;22.40;101488.00;;;;5042653;28;20663;-78
2023/08/13 03:40:55;;;;;;;3.17;1.52;;;20.70;60.90;22.40;101482.00;;;;5046179;28;20195;-78
2023/08/13 03:43:22;;;;;;;3.13;1.15;;;20.70;61.00;22.40;101477.00;;;;5048704;28;20265;-78
2023/08/13 03:45:49;;;;;;;4.18;1.55;;;20.70;61.00;22.30;101481.00;;;;5048609;28;20220;-78
2023/08/13 03:48:16;;;;;;;7.65;2.05;;;20.60;61.10;22.30;101482.00;;;;5048091;28;20199;-79
2023/08/13 03:50:43;;;;;;;2.35;1.13;;;20.60;61.00;22.30;101485.00;;;;5049300;28;20192;-78
2023/08/13 03:53:11;;;;;;;5.00;1.10;;;20.60;61.10;22.30;101480.00;;;;5049101;28;20201;-78
2023/08/13 03:55:39;;;;;;;2.85;1.02;;;20.60;61.20;22.30;101480.00;;;;5049271;28;20203;-78
2023/08/13 03:58:07;;;;;;;3.25;1.13;;;20.60;61.20;22.30;101484.00;;;;5042067;28;20235;-78
2023/08/13 04:00:34;;;;;;;3.65;1.20;;;20.60;61.20;22.30;101483.00;;;;5048621;28;20196;-78
2023/08/13 04:03:03;;;;;;;4.05;1.15;;;20.60;61.30;22.30;101482.00;;;;5048948;28;20722;-78
2023/08/13 04:05:30;;;;;;;4.10;1.00;;;20.60;61.30;22.30;101486.00;;;;5048130;28;20206;-78
2023/08/13 04:07:58;;;;;;;3.03;1.25;;;20.60;61.40;22.30;101486.00;;;;5048922;28;20199;-78
2023/08/13 04:10:26;;;;;;;5.38;1.55;;;20.60;61.40;22.30;101494.00;;;;5047088;28;20692;-78
2023/08/13 04:12:55;;;;;;;4.05;1.40;;;20.60;61.50;22.20;101491.00;;;;5043726;28;20204;-78
2023/08/13 04:15:22;;;;;;;4.57;1.92;;;20.60;61.60;22.20;101497.00;;;;5042536;28;20572;-77
2023/08/13 04:17:49;;;;;;;3.50;1.38;;;20.50;61.50;22.20;101496.00;;;;5045783;28;20223;-78
2023/08/13 04:20:17;;;;;;;2.95;1.40;;;20.60;61.60;22.20;101505.00;;;;5045163;28;20255;-78
2023/08/13 04:22:45;;;;;;;4.13;1.33;;;20.60;61.60;22.20;101499.00;;;;5048545;28;20651;-78
2023/08/13 04:25:12;;;;;;;6.47;2.03;;;20.60;61.70;22.20;101497.00;;;;5048199;28;20203;-78
2023/08/13 04:27:39;;;;;;;3.80;1.60;;;20.50;61.70;22.20;101494.00;;;;5045620;28;20676;-78
2023/08/13 04:30:10;;;;;;;1.85;1.02;;;20.50;61.70;22.20;101490.00;;;;5049315;28;20200;-79
2023/08/13 04:32:39;;;;;;;3.40;1.00;;;20.50;61.80;22.20;101490.00;;;;5039359;28;20192;-78
2023/08/13 04:35:07;;;;;;;5.40;1.48;;;20.50;61.80;22.20;101494.00;;;;5047718;28;20200;-78
2023/08/13 04:37:34;;;;;;;5.63;1.05;;;20.50;61.80;22.20;101485.00;;;;5047539;28;20219;-78
2023/08/13 04:40:01;;;;;;;4.82;1.38;;;20.50;61.90;22.20;101483.00;;;;5047246;28;20200;-78
2023/08/13 04:42:28;;;;;;;5.95;1.17;;;20.50;62.00;22.20;101478.00;;;;5047868;28;20199;-78
2023/08/13 04:44:55;;;;;;;2.40;1.23;;;20.60;62.00;22.20;101473.00;;;;5047940;28;20219;-78
2023/08/13 04:47:24;;;;;;;3.33;1.10;;;20.60;62.10;22.20;101483.00;;;;5047867;28;20257;-78
2023/08/13 04:49:51;;;;;;;2.75;1.20;;;20.60;62.20;22.20;101489.00;;;;5047024;28;20210;-78
2023/08/13 04:52:18;;;;;;;2.75;1.00;;;20.60;62.90;22.30;101497.00;;;;5048340;28;20210;-78
2023/08/13 04:54:46;;;;;;;3.50;1.27;;;20.60;62.20;22.30;101494.00;;;;5046713;28;20561;-78
2023/08/13 04:57:13;;;;;;;4.88;1.13;;;20.60;62.20;22.30;101490.00;;;;5047092;28;20230;-78
2023/08/13 04:59:40;;;;;;;2.60;1.17;;;20.60;62.20;22.30;101491.00;;;;5046302;28;20211;-78
2023/08/13 05:02:07;;;;;;;3.08;1.10;;;20.60;62.30;22.30;101492.00;;;;5045335;28;20227;-78
2023/08/13 05:04:35;;;;;;;5.35;1.65;;;20.60;62.30;22.30;101492.00;;;;5045017;28;20204;-78
2023/08/13 05:07:03;;;;;;;2.63;1.30;;;20.60;62.40;22.30;101493.00;;;;5046029;28;20195;-78
2023/08/13 05:09:31;;;;;;;5.88;1.27;;;20.60;62.40;22.30;101498.00;;;;5047502;28;20203;-77
2023/08/13 05:11:58;;;;;;;5.43;1.33;;;20.60;62.40;22.30;101496.00;;;;5047783;28;21027;-77
2023/08/13 05:14:25;;;;;;;4.05;1.30;;;20.70;62.50;22.40;101499.00;;;;5046742;28;20211;-78
2023/08/13 05:16:52;;;;;;;3.78;1.33;;;20.70;62.50;22.40;101491.00;;;;5047644;28;20219;-78
2023/08/13 05:19:19;;;;;;;3.92;1.20;;;20.70;62.60;22.40;101500.00;;;;5047074;28;20893;-78
2023/08/13 05:21:47;;;;;;;4.10;1.70;;;20.70;62.50;22.40;101493.00;;;;5047465;28;20675;-78
2023/08/13 05:24:14;;;;;;;4.85;1.23;;;20.70;62.60;22.40;101494.00;;;;5040626;28;20200;-78
2023/08/13 05:26:41;;;;;;;4.45;1.58;;;20.70;62.60;22.40;101487.00;;;;5047300;28;20550;-78
2023/08/13 05:29:10;;;;;;;2.88;1.02;;;20.70;62.60;22.40;101488.00;;;;5046158;28;20204;-79
2023/08/13 05:31:37;;;;;;;7.20;1.40;;;20.70;62.70;22.40;101495.00;;;;5043235;28;20195;-78
2023/08/13 05:34:04;;;;;;;2.92;1.10;;;20.70;62.60;22.40;101498.00;;;;5047059;28;20188;-78
2023/08/13 05:36:31;;;;;;;4.72;1.27;;;20.80;62.60;22.50;101494.00;;;;5042901;28;20211;-78
2023/08/13 05:39:01;;;;;;;4.70;1.52;;;20.80;62.60;22.50;101502.00;;;;5044824;28;20204;-78
2023/08/13 05:41:28;;;;;;;6.28;1.60;;;20.80;62.80;22.50;101495.00;;;;5047102;28;20211;-79
2023/08/13 05:43:56;;;;;;;6.70;1.55;;;20.80;62.80;22.50;101492.00;;;;5046356;28;20559;-78
2023/08/13 05:46:23;;;;;;;5.07;1.60;;;20.80;62.80;22.50;101494.00;;;;5041593;28;20607;-78
2023/08/13 05:48:50;;;;;;;8.07;1.77;;;20.90;62.90;22.60;101499.00;;;;5042077;28;20679;-78
2023/08/13 05:51:17;;;;;;;3.80;1.60;;;20.90;62.80;22.60;101506.00;;;;5046399;28;20208;-78
2023/08/13 05:53:44;;;;;;;3.75;1.00;;;20.90;63.00;22.60;101496.00;;;;5047026;28;20218;-78
2023/08/13 05:56:12;;;;;;;5.93;1.60;;;21.00;63.00;22.70;101502.00;;;;5042431;28;20196;-78
2023/08/13 05:58:39;;;;;;;3.15;1.15;;;21.00;63.10;22.70;101498.00;;;;5046653;28;20227;-78
2023/08/13 06:01:06;;;;;;;5.90;1.75;;;21.00;63.10;22.80;101508.00;;;;5036639;28;20208;-79
2023/08/13 06:03:33;;;;;;;4.00;1.52;;;21.10;63.20;22.80;101509.00;;;;5043437;28;20250;-79
2023/08/13 06:06:00;;;;;;;2.67;1.02;;;21.20;63.30;22.90;101513.00;;;;5038675;28;20253;-78
2023/08/13 06:08:28;;;;;;;6.40;1.58;;;21.20;63.30;23.00;101511.00;;;;5040341;28;20214;-80
2023/08/13 06:10:55;;;;;;;6.82;1.77;;;21.30;63.40;23.10;101515.00;;;;5044061;28;20295;-79
2023/08/13 06:13:23;;;;;;;2.35;1.15;;;21.40;63.40;23.10;101515.00;;;;5038931;28;20871;-79
2023/08/13 06:15:50;;;;;;;3.55;1.45;;;21.40;63.30;23.20;101519.00;;;;5039209;28;20192;-77
2023/08/13 06:18:17;;;;;;;5.53;1.58;;;21.50;63.30;23.20;101508.00;;;;5041080;28;20215;-78
2023/08/13 06:20:44;;;;;;;5.28;1.83;;;21.60;63.20;23.30;101504.00;;;;5042580;28;21527;-80
2023/08/13 06:23:11;;;;;;;3.63;1.23;;;21.60;63.20;23.40;101511.00;;;;5036494;28;20698;-79
2023/08/13 06:25:40;;;;;;;5.65;1.45;;;21.70;63.10;23.40;101512.00;;;;5044667;28;20192;-78
2023/08/13 06:28:07;;;;;;;4.88;1.35;;;21.70;63.10;23.50;101511.00;;;;5043299;28;20577;-79
2023/08/13 06:30:35;;;;;;;7.78;1.20;;;21.80;63.10;23.50;101514.00;;;;5028571;28;20197;-79
2023/08/13 06:33:03;;;;;;;4.65;1.17;;;21.90;63.00;23.60;101518.00;;;;5037795;28;20212;-77
2023/08/13 06:35:30;;;;;;;4.50;1.17;;;21.90;62.80;23.60;101520.00;;;;5036078;28;20228;-79
2023/08/13 06:37:57;;;;;;;3.00;1.38;;;22.00;62.90;23.70;101526.00;;;;5038138;28;20597;-79
2023/08/13 06:40:24;;;;;;;4.45;1.65;;;22.00;62.80;23.70;101528.00;;;;5046031;28;20698;-80
2023/08/13 06:42:51;;;;;;;3.88;1.70;;;22.10;62.60;23.80;101531.00;;;;5044045;28;20203;-80
2023/08/13 06:45:23;;;;;;;6.35;2.58;;;22.10;62.50;23.80;101528.00;;;;5037771;28;20537;-79
2023/08/13 06:47:54;;;;;;;3.78;1.75;;;22.10;63.30;23.90;101525.00;;;;5043706;28;20207;-79
2023/08/13 06:50:21;;;;;;;4.35;1.65;;;22.10;63.10;24.00;101526.00;;;;5039202;28;20195;-78
2023/08/13 06:52:49;;;;;;;7.07;1.83;;;22.20;62.80;24.00;101529.00;;;;5038882;28;20247;-77
2023/08/13 06:55:16;;;;;;;2.63;1.42;;;22.30;62.60;24.00;101527.00;;;;5033946;28;20723;-78
2023/08/13 06:57:43;;;;;;;4.38;1.50;;;22.40;62.50;24.10;101530.00;;;;5039448;28;20212;-79
2023/08/13 07:00:12;;;;;;;3.97;1.17;;;22.50;62.40;24.10;101530.00;;;;5038373;28;20198;-79
2023/08/13 07:02:38;;;;;;;4.38;1.92;;;22.50;62.30;24.20;101525.00;;;;5046719;28;20216;-78
2023/08/13 07:05:11;;;;;;;3.90;1.33;;;22.60;62.30;24.20;101527.00;;;;5038738;28;20510;-78
2023/08/13 07:07:38;;;;;;;1.58;1.13;;;22.60;62.30;24.30;101527.00;;;;5045846;28;20194;-80
2023/08/13 07:10:07;;;;;;;5.57;1.85;;;22.70;62.50;24.40;101530.00;;;;5045288;28;20210;-79
2023/08/13 07:12:34;;;;;;;4.55;1.30;;;22.70;62.40;24.40;101530.00;;;;5042496;28;20206;-77
2023/08/13 07:15:03;;;;;;;4.32;1.48;;;22.80;62.40;24.50;101523.00;;;;5047002;28;20196;-77
2023/08/13 07:17:31;;;;;;;4.32;1.33;;;22.90;62.30;24.50;101524.00;;;;5049058;28;20293;-77
2023/08/13 07:19:58;;;;;;;3.00;1.50;;;22.90;62.10;24.60;101522.00;;;;5049623;28;20200;-77
2023/08/13 07:22:27;;;;;;;6.93;1.88;;;23.00;62.10;24.60;101517.00;;;;5044858;28;20199;-78
2023/08/13 07:24:54;;;;;;;5.63;1.67;;;23.00;62.00;24.70;101517.00;;;;5049322;28;20234;-77
2023/08/13 07:27:21;;;;;;;8.23;2.00;;;23.00;61.80;24.80;101526.00;;;;5050442;28;20218;-78
2023/08/13 07:29:48;;;;;;;2.67;1.10;;;23.10;61.90;24.80;101531.00;;;;5047274;28;20762;-78
2023/08/13 07:32:15;;;;;;;5.53;1.65;;;23.20;61.90;24.80;101527.00;;;;5050093;28;20207;-77
2023/08/13 07:34:42;;;;;;;6.18;1.30;;;23.20;61.70;24.90;101529.00;;;;5042830;28;20651;-77
2023/08/13 07:37:09;;;;;;;8.55;1.30;;;23.30;61.70;25.00;101526.00;;;;5048222;28;20200;-75
2023/08/13 07:39:38;;;;;;;6.45;1.80;;;23.30;61.80;25.10;101527.00;;;;5046424;28;20223;-77
2023/08/13 07:42:08;;;;;;;4.25;1.70;;;23.50;61.80;25.10;101531.00;;;;5047700;28;20195;-77
2023/08/13 07:44:35;;;;;;;4.35;1.48;;;23.50;61.70;25.20;101534.00;;;;5048462;28;20200;-76
2023/08/13 07:47:02;;;;;;;4.60;1.20;;;23.60;61.60;25.30;101539.00;;;;5047839;28;20192;-77
2023/08/13 07:49:30;;;;;;;4.72;1.25;;;23.60;61.50;25.30;101533.00;;;;5048037;28;20205;-80
2023/08/13 07:51:57;;;;;;;4.72;1.05;;;23.70;61.40;25.30;101539.00;;;;5043028;28;20196;-80
2023/08/13 07:54:24;;;;;;;4.15;1.40;;;23.70;61.20;25.40;101538.00;;;;5043484;28;20208;-79
2023/08/13 07:56:53;;;;;;;5.05;1.52;;;23.80;61.10;25.40;101534.00;;;;5047501;28;20657;-79
2023/08/13 07:59:20;;;;;;;4.57;1.52;;;23.80;61.80;25.50;101526.00;;;;5047735;28;20223;-79
2023/08/13 08:01:47;;;;;;;2.97;1.40;;;23.90;61.10;25.60;101525.00;;;;5045938;28;20200;-78
2023/08/13 08:04:14;;;;;;;4.00;1.17;;;24.00;60.90;25.60;101522.00;;;;5047899;28;20699;-78
2023/08/13 08:06:41;;;;;;;3.92;1.00;;;24.00;60.80;25.70;101524.00;;;;5048406;28;21699;-78
2023/08/13 08:09:08;;;;;;;3.30;1.00;;;24.10;60.60;25.70;101525.00;;;;5042590;28;20199;-79
2023/08/13 08:11:35;;;;;;;2.65;1.00;;;24.10;60.30;25.70;101530.00;;;;5041503;28;20207;-79
2023/08/13 08:14:04;;;;;;;1.55;0.93;;;24.20;60.30;25.80;101528.00;;;;5042012;28;20196;-79
2023/08/13 08:16:31;;;;;;;5.47;1.38;;;24.20;60.10;25.80;101524.00;;;;5040779;28;20195;-78
2023/08/13 08:18:58;;;;;;;2.97;1.02;;;24.20;60.10;25.90;101526.00;;;;5040736;28;20643;-77
2023/08/13 08:21:25;;;;;;;3.67;1.20;;;24.30;60.20;25.90;101533.00;;;;5047886;28;20194;-78
2023/08/13 08:23:52;;;;;;;5.38;1.55;;;24.40;60.00;26.00;101530.00;;;;5043224;28;20211;-79
2023/08/13 08:26:21;;;;;;;2.58;0.82;;;24.40;59.80;26.00;101530.00;;;;5044086;28;20196;-79
2023/08/13 08:28:50;;;;;;;2.67;1.08;;;24.50;59.80;26.10;101520.00;;;;5047786;28;20222;-80
2023/08/13 08:31:18;;;;;;;0.70;0.45;;;24.50;59.70;26.10;101520.00;;;;5043896;28;20670;-79
2023/08/13 08:33:45;;;;;;;3.42;1.08;;;24.60;59.70;26.20;101527.00;;;;5049556;28;20196;-80
2023/08/13 08:36:12;;;;;;;3.33;1.08;;;24.70;59.70;26.20;101528.00;;;;5048978;28;20196;-79
2023/08/13 08:38:39;;;;;;;2.70;1.02;;;24.70;59.40;26.30;101526.00;;;;5048093;28;20226;-79
2023/08/13 08:41:06;;;;;;;3.47;0.90;;;24.70;58.90;26.30;101535.00;;;;5048451;28;20188;-79
2023/08/13 08:43:35;;;;;;;4.13;1.23;;;24.80;59.00;26.30;101536.00;;;;5048728;28;20199;-79
2023/08/13 08:46:03;;;;;;;3.30;1.08;;;24.80;58.80;26.30;101526.00;;;;5040762;28;20212;-79
2023/08/13 08:48:34;;;;;;;1.30;0.85;;;24.80;58.90;26.30;101534.00;;;;5049461;28;20196;-80
2023/08/13 08:51:01;;;;;;;1.92;0.98;;;24.80;58.90;26.40;101537.00;;;;5040836;28;20577;-80
2023/08/13 08:53:30;;;;;;;3.63;1.30;;;24.90;59.00;26.30;101530.00;;;;5041820;28;21003;-81
2023/08/13 08:55:57;;;;;;;6.15;1.38;;;24.90;58.70;26.30;101536.00;;;;5047803;28;20207;-80
2023/08/13 08:58:24;;;;;;;4.18;1.15;;;24.90;58.60;26.40;101527.00;;;;5048176;28;20224;-80
2023/08/13 09:00:56;;;;;;;5.72;1.67;;;24.90;58.60;26.40;101535.00;;;;5048848;28;20196;-80
2023/08/13 09:03:23;;;;;;;2.95;1.05;;;24.90;58.40;26.30;101523.00;;;;5048123;28;20706;-80
2023/08/13 09:05:51;;;;;;;6.18;1.55;;;24.90;58.40;26.30;101525.00;;;;5047577;28;20196;-80
2023/08/13 09:08:19;;;;;;;2.67;1.30;;;24.90;58.40;26.40;101527.00;;;;5048905;28;20196;-80
2023/08/13 09:10:46;;;;;;;3.65;0.88;;;24.90;58.50;26.40;101523.00;;;;5048467;28;20211;-80
2023/08/13 09:13:13;;;;;;;3.35;1.00;;;24.90;58.60;26.50;101523.00;;;;5048663;28;20196;-80
2023/08/13 09:15:44;;;;;;;2.85;1.00;;;25.00;58.60;26.50;101522.00;;;;5047839;28;20203;-80
2023/08/13 09:18:13;;;;;;;7.85;1.23;;;25.00;58.70;26.50;101513.00;;;;5042181;28;20222;-81
2023/08/13 09:20:45;;;;;;;4.53;1.48;;;25.00;58.60;26.60;101512.00;;;;5047776;28;20234;-80
2023/08/13 09:23:22;;;;;;;3.67;1.35;;;25.10;58.50;26.60;101506.00;;;;5044943;28;20188;-81
2023/08/13 09:25:53;;;;;;;2.75;0.90;;;25.10;58.30;26.70;101514.00;;;;5048097;28;20192;-80
2023/08/13 09:28:20;;;;;;;5.90;1.75;;;25.20;58.40;26.70;101513.00;;;;5043820;28;20637;-81
2023/08/13 09:30:47;;;;;;;3.17;1.40;;;25.20;58.40;26.70;101511.00;;;;5039234;28;20255;-81
2023/08/13 09:33:15;;;;;;;8.60;1.20;;;25.30;58.00;26.70;101512.00;;;;5040975;28;20203;-80
2023/08/13 09:35:44;;;;;;;3.90;1.38;;;25.30;57.90;26.70;101509.00;;;;5042536;28;20192;-81
2023/08/13 09:38:11;;;;;;;4.18;1.35;;;25.30;57.80;26.70;101507.00;;;;5039743;28;20241;-81
2023/08/13 09:40:39;;;;;;;2.25;1.10;;;25.30;57.60;26.70;101508.00;;;;5041009;28;20191;-81
2023/08/13 09:43:09;;;;;;;3.38;1.08;;;25.30;57.50;26.70;101506.00;;;;5041500;28;20200;-80
2023/08/13 09:45:36;;;;;;;3.50;1.08;;;25.30;57.40;26.70;101497.00;;;;5041797;28;20235;-80
2023/08/13 09:48:06;;;;;;;2.83;1.20;;;25.30;57.60;26.70;101493.00;;;;5041876;28;20204;-81
2023/08/13 09:50:39;;;;;;;4.90;1.27;;;25.20;57.70;26.70;101488.00;;;;5041392;28;20214;-80
2023/08/13 09:53:11;;;;;;;7.88;1.15;;;25.30;58.00;26.80;101496.00;;;;5040996;28;20204;-81
2023/08/13 09:55:45;;;;;;;4.38;1.58;;;25.30;58.20;26.80;101489.00;;;;5041459;28;20203;-81
2023/08/13 09:58:15;;;;;;;2.08;0.75;;;25.30;58.10;26.90;101488.00;;;;5041903;28;20183;-80
2023/08/13 10:00:42;;;;;;;1.58;0.73;;;25.40;57.90;27.00;101491.00;;;;5041346;28;20187;-81
2023/08/13 10:03:10;;;;;;;2.90;1.38;;;25.40;57.90;27.00;101485.00;;;;5039850;28;20230;-80
2023/08/13 10:05:38;;;;;;;8.75;1.25;;;25.50;58.10;27.10;101489.00;;;;5041815;28;21008;-80
2023/08/13 10:08:07;;;;;;;5.57;1.55;;;25.50;58.10;27.10;101491.00;;;;5041288;28;20325;-81
2023/08/13 10:10:35;;;;;;;3.33;1.40;;;25.60;58.10;27.20;101488.00;;;;5041474;28;20196;-81
2023/08/13 10:13:05;;;;;;;4.43;1.30;;;25.70;57.60;27.20;101488.00;;;;5040674;28;20208;-81
2023/08/13 10:15:34;;;;;;;5.30;1.70;;;25.70;57.50;27.20;101483.00;;;;5040979;28;20599;-81
2023/08/13 10:18:03;;;;;;;4.13;1.15;;;25.70;57.20;27.20;101482.00;;;;5041518;28;20203;-81
2023/08/13 10:20:30;;;;;;;5.35;1.50;;;25.80;57.00;27.20;101484.00;;;;5040724;28;20239;-81
2023/08/13 10:23:01;;;;;;;5.97;1.45;;;25.80;57.00;27.20;101485.00;;;;5040737;28;20199;-81
2023/08/13 10:25:30;;;;;;;3.60;1.00;;;25.80;57.00;27.20;101492.00;;;;5040389;28;20210;-81
2023/08/13 10:27:58;;;;;;;3.30;1.40;;;25.80;56.90;27.20;101474.00;;;;5040329;28;20215;-80
2023/08/13 10:30:26;;;;;;;3.45;1.20;;;25.80;56.70;27.30;101477.00;;;;5040323;28;20682;-81
2023/08/13 10:32:58;;;;;;;5.93;1.67;;;25.80;56.80;27.30;101469.00;;;;5040586;28;20199;-80
2023/08/13 10:35:29;;;;;;;5.65;1.38;;;25.80;56.80;27.40;101477.00;;;;5040198;28;20210;-80
2023/08/13 10:37:59;;;;;;;5.35;1.50;;;25.90;57.40;27.50;101469.00;;;;5039833;28;20246;-80
2023/08/13 10:40:26;;;;;;;5.25;1.33;;;26.00;57.00;27.50;101470.00;;;;5041603;28;20227;-80
2023/08/13 10:42:55;;;;;;;3.22;1.25;;;26.00;56.80;27.50;101474.00;;;;5047281;28;20202;-80
2023/08/13 10:45:27;;;;;;;3.00;1.40;;;26.10;56.80;27.60;101479.00;;;;5045672;28;20215;-80
2023/08/13 10:47:57;;;;;;;3.13;1.52;;;26.20;56.80;27.70;101467.00;;;;5042646;28;20206;-80
2023/08/13 10:50:31;;;;;;;3.92;1.38;;;26.20;56.80;27.70;101465.00;;;;5050283;28;20218;-80